createdAt,value
2023-05-15T00:00:32.727Z,34.58
2023-05-15T00:01:32.756Z,29.29
2023-05-15T00:02:32.837Z,31.78
2023-05-15T00:03:33.023Z,30.81
2023-05-15T00:04:32.924Z,30.76
2023-05-15T00:05:32.847Z,28.96
2023-05-15T00:06:32.908Z,30.11
2023-05-15T00:07:32.946Z,30.12
2023-05-15T00:08:32.983Z,26.49
2023-05-15T00:09:33.013Z,33.39
2023-05-15T00:10:33.054Z,27.78
2023-05-15T00:11:33.101Z,30.94
2023-05-15T00:12:33.121Z,30.82
2023-05-15T00:13:33.161Z,30.15
2023-05-15T00:14:33.165Z,28.26
2023-05-15T00:15:33.197Z,30.92
2023-05-15T00:16:33.333Z,29.03
2023-05-15T00:17:33.309Z,28.21
2023-05-15T00:18:33.317Z,29.25
2023-05-15T00:19:33.340Z,28.62
2023-05-15T00:20:33.375Z,30.27
2023-05-15T00:21:33.389Z,29.09
2023-05-15T00:22:33.414Z,34.22
2023-05-15T00:23:33.489Z,26.03
2023-05-15T00:24:33.478Z,32.11
2023-05-15T00:25:33.514Z,30.34
2023-05-15T00:26:33.550Z,31.58
2023-05-15T00:27:33.562Z,29.65
2023-05-15T00:28:33.605Z,31.17
2023-05-15T00:29:33.652Z,32.78
2023-05-15T00:30:33.694Z,31.01
2023-05-15T00:31:33.742Z,30.75
2023-05-15T00:32:33.763Z,26.40
2023-05-15T00:33:33.785Z,32.40
2023-05-15T00:34:33.833Z,29.52
2023-05-15T00:35:34.317Z,28.81
2023-05-15T00:36:33.854Z,29.71
2023-05-15T00:37:33.918Z,30.80
2023-05-15T00:38:33.912Z,30.36
2023-05-15T00:39:33.965Z,30.55
2023-05-15T00:40:34.261Z,30.72
2023-05-15T00:41:34.047Z,29.88
2023-05-15T00:42:34.051Z,29.05
2023-05-15T00:43:34.097Z,27.59
2023-05-15T00:44:34.167Z,32.29
2023-05-15T00:45:34.176Z,29.14
2023-05-15T00:46:34.226Z,28.61
2023-05-15T00:47:34.251Z,30.64
2023-05-15T00:48:34.269Z,31.95
2023-05-15T00:49:34.270Z,29.74
2023-05-15T00:50:34.805Z,30.31
2023-05-15T00:51:34.355Z,27.75
2023-05-15T00:52:34.384Z,32.00
2023-05-15T00:53:34.454Z,29.99
2023-05-15T00:54:34.485Z,28.37
2023-05-15T00:55:34.490Z,28.67
2023-05-15T00:56:34.564Z,26.62
2023-05-15T00:57:34.542Z,30.55
2023-05-15T00:58:34.598Z,31.41
2023-05-15T00:59:34.608Z,30.84
2023-05-15T01:00:34.881Z,30.73
2023-05-15T01:01:34.864Z,27.03
2023-05-15T01:02:34.793Z,30.38
2023-05-15T01:03:34.785Z,33.06
2023-05-15T01:04:34.784Z,30.98
2023-05-15T01:05:34.771Z,31.89
2023-05-15T01:06:34.829Z,29.15
2023-05-15T01:07:34.886Z,29.89
2023-05-15T01:08:34.922Z,31.72
2023-05-15T01:09:34.965Z,31.00
2023-05-15T01:10:34.970Z,30.15
2023-05-15T01:11:34.994Z,29.12
2023-05-15T01:12:35.043Z,30.16
2023-05-15T01:13:35.046Z,29.21
2023-05-15T01:14:35.148Z,29.51
2023-05-15T01:15:35.294Z,30.73
2023-05-15T01:16:35.147Z,30.58
2023-05-15T01:17:35.290Z,27.55
2023-05-15T01:18:35.350Z,27.75
2023-05-15T01:19:35.417Z,26.79
2023-05-15T01:20:35.284Z,32.86
2023-05-15T01:21:35.786Z,31.08
2023-05-15T01:22:35.311Z,28.83
2023-05-15T01:23:35.373Z,34.03
2023-05-15T01:24:35.432Z,33.01
2023-05-15T01:25:35.483Z,29.47
2023-05-15T01:26:36.308Z,29.92
2023-05-15T01:27:35.509Z,31.46
2023-05-15T01:28:35.546Z,27.40
2023-05-15T01:29:35.568Z,29.88
2023-05-15T01:30:35.621Z,30.45
2023-05-15T01:31:35.684Z,28.11
2023-05-15T01:32:35.700Z,32.87
2023-05-15T01:33:35.697Z,30.99
2023-05-15T01:34:35.743Z,28.08
2023-05-15T01:35:35.757Z,29.68
2023-05-15T01:36:35.806Z,31.59
2023-05-15T01:37:35.803Z,31.04
2023-05-15T01:38:35.893Z,33.35
2023-05-15T01:39:35.886Z,28.16
2023-05-15T01:40:35.908Z,27.05
2023-05-15T01:41:35.992Z,29.27
2023-05-15T01:42:36.017Z,30.11
2023-05-15T01:43:36.010Z,27.84
2023-05-15T01:44:36.062Z,28.42
2023-05-15T01:45:36.043Z,28.36
2023-05-15T01:46:36.319Z,29.35
2023-05-15T01:47:36.185Z,28.98
2023-05-15T01:48:36.179Z,29.80
2023-05-15T01:49:36.184Z,32.12
2023-05-15T01:50:36.194Z,30.06
2023-05-15T01:51:36.226Z,30.93
2023-05-15T01:52:36.336Z,30.47
2023-05-15T01:53:36.326Z,30.85
2023-05-15T01:54:36.356Z,28.49
2023-05-15T01:55:36.409Z,30.88
2023-05-15T01:56:36.439Z,27.92
2023-05-15T01:57:36.440Z,29.68
2023-05-15T01:58:36.476Z,30.61
2023-05-15T01:59:36.512Z,25.78
2023-05-15T02:00:36.544Z,31.02
2023-05-15T02:01:36.642Z,30.03
2023-05-15T02:02:36.654Z,28.96
2023-05-15T02:03:36.696Z,31.33
2023-05-15T02:04:36.666Z,30.86
2023-05-15T02:05:36.724Z,33.07
2023-05-15T02:06:36.729Z,30.04
2023-05-15T02:07:36.803Z,30.79
2023-05-15T02:08:36.816Z,27.79
2023-05-15T02:09:36.895Z,28.97
2023-05-15T02:10:36.897Z,30.96
2023-05-15T02:11:36.898Z,31.66
2023-05-15T02:12:36.946Z,28.55
2023-05-15T02:13:36.990Z,29.24
2023-05-15T02:14:37.028Z,31.70
2023-05-15T02:15:37.060Z,29.34
2023-05-15T02:16:37.141Z,29.20
2023-05-15T02:17:37.192Z,29.72
2023-05-15T02:18:37.196Z,29.47
2023-05-15T02:19:37.161Z,30.97
2023-05-15T02:20:37.195Z,29.20
2023-05-15T02:21:37.286Z,28.85
2023-05-15T02:22:37.288Z,28.14
2023-05-15T02:23:37.333Z,30.24
2023-05-15T02:24:37.351Z,29.18
2023-05-15T02:25:37.378Z,29.22
2023-05-15T02:26:37.438Z,31.44
2023-05-15T02:27:37.467Z,29.84
2023-05-15T02:28:37.507Z,29.29
2023-05-15T02:29:37.550Z,31.05
2023-05-15T02:30:37.556Z,30.82
2023-05-15T02:31:37.642Z,30.87
2023-05-15T02:32:37.646Z,31.62
2023-05-15T02:33:37.650Z,28.14
2023-05-15T02:34:37.699Z,31.26
2023-05-15T02:35:37.721Z,30.91
2023-05-15T02:36:37.751Z,29.66
2023-05-15T02:37:37.809Z,31.52
2023-05-15T02:38:37.853Z,28.75
2023-05-15T02:39:37.882Z,32.17
2023-05-15T02:40:37.891Z,27.17
2023-05-15T02:41:37.919Z,27.05
2023-05-15T02:42:37.944Z,30.89
2023-05-15T02:43:37.973Z,30.19
2023-05-15T02:44:38.007Z,28.26
2023-05-15T02:45:38.110Z,29.35
2023-05-15T02:46:38.081Z,29.14
2023-05-15T02:47:38.142Z,27.47
2023-05-15T02:48:38.141Z,29.27
2023-05-15T02:49:38.205Z,28.85
2023-05-15T02:50:38.178Z,30.27
2023-05-15T02:51:38.220Z,29.10
2023-05-15T02:52:38.257Z,30.13
2023-05-15T02:53:38.290Z,28.26
2023-05-15T02:54:38.325Z,28.49
2023-05-15T02:55:38.366Z,30.59
2023-05-15T02:56:38.394Z,28.92
2023-05-15T02:57:38.432Z,28.76
2023-05-15T02:58:38.468Z,32.44
2023-05-15T02:59:38.465Z,27.51
2023-05-15T03:00:38.550Z,29.08
2023-05-15T03:01:38.681Z,28.82
2023-05-15T03:02:38.658Z,30.09
2023-05-15T03:03:38.646Z,30.31
2023-05-15T03:04:38.759Z,30.92
2023-05-15T03:05:38.711Z,30.08
2023-05-15T03:06:38.758Z,32.25
2023-05-15T03:07:38.769Z,30.97
2023-05-15T03:08:38.839Z,29.80
2023-05-15T03:09:38.843Z,30.00
2023-05-15T03:10:38.890Z,30.02
2023-05-15T03:11:38.928Z,26.90
2023-05-15T03:12:38.918Z,29.39
2023-05-15T03:13:38.985Z,27.36
2023-05-15T03:14:39.023Z,28.80
2023-05-15T03:15:39.068Z,30.51
2023-05-15T03:16:39.262Z,28.80
2023-05-15T03:17:39.113Z,28.25
2023-05-15T03:18:39.154Z,30.91
2023-05-15T03:19:39.169Z,32.34
2023-05-15T03:20:39.245Z,29.26
2023-05-15T03:21:39.296Z,29.02
2023-05-15T03:22:39.321Z,28.76
2023-05-15T03:23:39.355Z,25.53
2023-05-15T03:24:39.363Z,30.33
2023-05-15T03:25:39.401Z,32.01
2023-05-15T03:26:39.498Z,30.46
2023-05-15T03:27:39.478Z,31.27
2023-05-15T03:28:41.080Z,30.71
2023-05-15T03:29:39.540Z,31.26
2023-05-15T03:30:39.499Z,29.56
2023-05-15T03:31:39.530Z,29.64
2023-05-15T03:32:39.534Z,28.55
2023-05-15T03:33:39.443Z,28.68
2023-05-15T03:34:41.082Z,29.49
2023-05-15T03:35:39.454Z,33.73
2023-05-15T03:36:39.464Z,34.07
2023-05-15T03:37:39.571Z,30.40
2023-05-15T03:38:39.455Z,31.79
2023-05-15T03:39:39.422Z,28.61
2023-05-15T03:40:39.426Z,30.56
2023-05-15T03:41:39.851Z,31.02
2023-05-15T03:42:39.429Z,29.47
2023-05-15T03:43:39.396Z,28.60
2023-05-15T03:44:39.425Z,30.33
2023-05-15T03:45:39.407Z,28.91
2023-05-15T03:46:39.499Z,30.73
2023-05-15T03:47:39.478Z,27.42
2023-05-15T03:48:39.359Z,28.09
2023-05-15T03:49:39.376Z,28.50
2023-05-15T03:50:39.377Z,28.67
2023-05-15T03:51:39.380Z,31.13
2023-05-15T03:52:40.819Z,31.84
2023-05-15T03:53:39.508Z,32.26
2023-05-15T03:54:39.420Z,29.77
2023-05-15T03:55:39.409Z,28.16
2023-05-15T03:56:39.423Z,31.46
2023-05-15T03:57:39.417Z,28.31
2023-05-15T03:58:39.400Z,30.00
2023-05-15T03:59:39.392Z,27.72
2023-05-15T04:00:39.429Z,32.78
2023-05-15T04:01:55.345Z,30.67
2023-05-15T04:02:40.486Z,31.07
2023-05-15T04:03:39.389Z,31.35
2023-05-15T04:04:39.367Z,32.01
2023-05-15T04:05:39.347Z,29.81
2023-05-15T04:06:39.347Z,32.23
2023-05-15T04:07:39.340Z,30.76
2023-05-15T04:08:40.425Z,30.66
2023-05-15T04:09:39.320Z,29.57
2023-05-15T04:10:39.340Z,30.42
2023-05-15T04:11:39.343Z,31.06
2023-05-15T04:12:39.322Z,31.21
2023-05-15T04:13:39.303Z,28.59
2023-05-15T04:14:39.336Z,28.65
2023-05-15T04:15:39.423Z,32.10
2023-05-15T04:17:39.487Z,34.58
2023-05-15T04:18:39.579Z,29.72
2023-05-15T04:19:41.009Z,30.93
2023-05-15T04:20:39.591Z,30.01
2023-05-15T04:21:39.617Z,31.46
2023-05-15T04:22:39.643Z,29.66
2023-05-15T04:23:39.712Z,29.96
2023-05-15T04:24:39.750Z,30.55
2023-05-15T04:25:39.797Z,31.05
2023-05-15T04:26:39.804Z,32.67
2023-05-15T04:27:39.860Z,29.77
2023-05-15T04:28:41.475Z,26.98
2023-05-15T04:29:40.888Z,27.32
2023-05-15T04:30:39.876Z,28.07
2023-05-15T04:31:39.949Z,28.50
2023-05-15T04:32:39.919Z,29.97
2023-05-15T04:33:39.873Z,30.97
2023-05-15T04:34:39.874Z,28.95
2023-05-15T04:35:39.834Z,32.26
2023-05-15T04:36:40.861Z,31.91
2023-05-15T04:37:39.839Z,31.73
2023-05-15T04:38:39.831Z,28.53
2023-05-15T04:39:39.814Z,30.46
2023-05-15T04:40:39.826Z,30.84
2023-05-15T04:41:39.798Z,30.97
2023-05-15T04:42:39.884Z,31.51
2023-05-15T04:43:41.296Z,30.80
2023-05-15T04:44:39.791Z,33.85
2023-05-15T04:45:39.770Z,31.44
2023-05-15T04:46:39.814Z,31.64
2023-05-15T04:47:39.775Z,31.51
2023-05-15T04:48:39.814Z,29.34
2023-05-15T04:49:39.747Z,30.02
2023-05-15T04:50:39.732Z,30.73
2023-05-15T04:51:39.764Z,33.05
2023-05-15T04:52:39.733Z,29.44
2023-05-15T04:53:39.677Z,30.97
2023-05-15T04:54:39.709Z,27.51
2023-05-15T04:55:39.665Z,31.42
2023-05-15T04:56:39.865Z,29.09
2023-05-15T04:57:39.694Z,29.04
2023-05-15T04:58:39.668Z,26.20
2023-05-15T04:59:39.648Z,28.70
2023-05-15T05:00:39.663Z,32.80
2023-05-15T05:01:39.716Z,31.38
2023-05-15T05:02:39.725Z,30.45
2023-05-15T05:03:39.798Z,28.75
2023-05-15T05:04:39.777Z,31.21
2023-05-15T05:05:39.842Z,27.46
2023-05-15T05:06:39.883Z,29.41
2023-05-15T05:07:39.899Z,26.61
2023-05-15T05:08:39.954Z,32.49
2023-05-15T05:09:39.992Z,26.60
2023-05-15T05:10:40.047Z,27.88
2023-05-15T05:11:40.358Z,28.98
2023-05-15T05:12:40.122Z,31.39
2023-05-15T05:13:40.171Z,29.98
2023-05-15T05:14:40.164Z,27.72
2023-05-15T05:15:40.222Z,27.45
2023-05-15T05:16:40.248Z,32.98
2023-05-15T05:17:40.303Z,31.11
2023-05-15T05:18:40.364Z,31.05
2023-05-15T05:19:40.377Z,30.38
2023-05-15T05:20:40.413Z,28.92
2023-05-15T05:21:40.436Z,32.19
2023-05-15T05:22:40.492Z,31.50
2023-05-15T05:23:40.553Z,29.27
2023-05-15T05:24:40.554Z,28.22
2023-05-15T05:25:40.604Z,30.08
2023-05-15T05:26:40.649Z,28.08
2023-05-15T05:27:40.668Z,28.93
2023-05-15T05:28:40.746Z,30.85
2023-05-15T05:29:40.793Z,30.58
2023-05-15T05:30:40.780Z,30.55
2023-05-15T05:31:40.897Z,29.05
2023-05-15T05:32:41.006Z,27.22
2023-05-15T05:33:40.891Z,29.29
2023-05-15T05:34:40.919Z,32.47
2023-05-15T05:35:40.956Z,29.99
2023-05-15T05:36:41.031Z,30.57
2023-05-15T05:37:41.563Z,28.63
2023-05-15T05:38:41.101Z,29.03
2023-05-15T05:39:41.130Z,29.02
2023-05-15T05:40:41.164Z,27.16
2023-05-15T05:41:41.248Z,30.66
2023-05-15T05:42:41.254Z,28.90
2023-05-15T05:43:41.304Z,30.19
2023-05-15T05:44:41.339Z,28.49
2023-05-15T05:45:41.347Z,32.76
2023-05-15T05:46:41.455Z,31.44
2023-05-15T05:47:41.502Z,31.86
2023-05-15T05:48:41.456Z,30.37
2023-05-15T05:49:41.512Z,31.57
2023-05-15T05:50:41.556Z,30.84
2023-05-15T05:51:41.629Z,32.40
2023-05-15T05:52:41.631Z,28.73
2023-05-15T05:53:41.707Z,30.45
2023-05-15T05:54:41.710Z,30.05
2023-05-15T05:55:41.743Z,32.30
2023-05-15T05:56:41.809Z,35.25
2023-05-15T05:57:41.843Z,32.53
2023-05-15T05:58:41.888Z,32.79
2023-05-15T05:59:41.901Z,33.43
2023-05-15T06:00:41.939Z,33.84
2023-05-15T06:01:42.522Z,32.59
2023-05-15T06:02:42.152Z,32.16
2023-05-15T06:03:42.148Z,29.09
2023-05-15T06:04:42.089Z,33.29
2023-05-15T06:05:42.165Z,30.79
2023-05-15T06:06:42.197Z,31.13
2023-05-15T06:07:42.200Z,29.14
2023-05-15T06:08:42.258Z,30.77
2023-05-15T06:09:42.307Z,33.41
2023-05-15T06:10:42.381Z,31.99
2023-05-15T06:11:42.394Z,34.35
2023-05-15T06:12:42.422Z,31.27
2023-05-15T06:13:42.464Z,32.82
2023-05-15T06:14:42.458Z,31.15
2023-05-15T06:15:42.546Z,33.59
2023-05-15T06:16:42.621Z,30.69
2023-05-15T06:17:42.646Z,32.96
2023-05-15T06:18:42.677Z,36.06
2023-05-15T06:19:42.695Z,31.45
2023-05-15T06:20:42.746Z,32.92
2023-05-15T06:21:42.902Z,32.66
2023-05-15T06:22:42.796Z,33.05
2023-05-15T06:23:42.804Z,34.69
2023-05-15T06:24:42.819Z,30.69
2023-05-15T06:25:42.919Z,31.95
2023-05-15T06:26:42.964Z,32.86
2023-05-15T06:27:42.969Z,35.66
2023-05-15T06:28:42.998Z,34.99
2023-05-15T06:29:43.044Z,33.10
2023-05-15T06:30:43.068Z,32.93
2023-05-15T06:31:43.417Z,34.91
2023-05-15T06:32:43.192Z,32.97
2023-05-15T06:33:43.219Z,37.41
2023-05-15T06:34:43.246Z,36.17
2023-05-15T06:35:43.912Z,34.48
2023-05-15T06:36:43.339Z,34.99
2023-05-15T06:37:43.410Z,35.94
2023-05-15T06:38:43.389Z,32.64
2023-05-15T06:39:43.457Z,38.29
2023-05-15T06:40:43.473Z,36.63
2023-05-15T06:41:43.508Z,36.12
2023-05-15T06:42:43.540Z,32.37
2023-05-15T06:43:43.583Z,35.35
2023-05-15T06:44:43.600Z,33.58
2023-05-15T06:45:43.692Z,31.53
2023-05-15T06:46:43.736Z,39.29
2023-05-15T06:47:43.776Z,32.24
2023-05-15T06:48:43.779Z,28.76
2023-05-15T06:49:43.876Z,36.25
2023-05-15T06:50:43.918Z,36.07
2023-05-15T06:51:43.905Z,36.17
2023-05-15T06:52:43.933Z,38.92
2023-05-15T06:53:43.977Z,35.00
2023-05-15T06:54:43.972Z,38.40
2023-05-15T06:55:44.053Z,31.97
2023-05-15T06:56:44.067Z,33.83
2023-05-15T06:57:44.109Z,40.80
2023-05-15T06:58:44.135Z,38.23
2023-05-15T06:59:44.184Z,45.61
2023-05-15T07:00:44.217Z,56.73
2023-05-15T07:01:44.293Z,53.52
2023-05-15T07:02:44.339Z,57.46
2023-05-15T07:03:44.284Z,60.80
2023-05-15T07:04:44.325Z,65.45
2023-05-15T07:05:44.295Z,63.84
2023-05-15T07:06:44.296Z,69.18
2023-05-15T07:07:44.297Z,73.23
2023-05-15T07:08:44.313Z,71.91
2023-05-15T07:09:44.268Z,73.26
2023-05-15T07:10:44.281Z,73.93
2023-05-15T07:11:44.271Z,75.79
2023-05-15T07:12:44.273Z,74.27
2023-05-15T07:13:44.277Z,78.08
2023-05-15T07:14:44.258Z,82.51
2023-05-15T07:15:44.251Z,85.14
2023-05-15T07:16:44.259Z,92.81
2023-05-15T07:17:44.499Z,90.91
2023-05-15T07:18:44.354Z,93.03
2023-05-15T07:19:44.295Z,94.54
2023-05-15T07:20:44.296Z,95.22
2023-05-15T07:21:44.416Z,97.46
2023-05-15T07:22:55.006Z,98.24
2023-05-15T07:23:45.381Z,98.44
2023-05-15T07:24:44.342Z,98.49
2023-05-15T07:25:45.921Z,98.81
2023-05-15T07:26:57.425Z,99.50
2023-05-15T07:27:45.347Z,98.46
2023-05-15T07:28:44.310Z,99.10
2023-05-15T07:29:44.295Z,100.13
2023-05-15T07:30:44.307Z,98.75
2023-05-15T07:31:44.332Z,102.61
2023-05-15T07:32:44.473Z,102.60
2023-05-15T07:33:44.278Z,99.44
2023-05-15T07:34:44.306Z,97.97
2023-05-15T07:35:44.347Z,99.64
2023-05-15T07:36:44.422Z,102.09
2023-05-15T07:37:44.500Z,101.14
2023-05-15T07:38:44.501Z,99.38
2023-05-15T07:39:44.587Z,101.46
2023-05-15T07:40:44.633Z,105.41
2023-05-15T07:41:44.649Z,101.45
2023-05-15T07:42:44.730Z,102.14
2023-05-15T07:43:44.761Z,103.46
2023-05-15T07:44:47.178Z,106.70
2023-05-15T07:45:44.869Z,106.74
2023-05-15T07:46:44.886Z,107.00
2023-05-15T07:47:44.875Z,99.57
2023-05-15T07:48:44.794Z,104.72
2023-05-15T07:49:44.764Z,106.23
2023-05-15T07:50:44.774Z,102.74
2023-05-15T07:51:44.754Z,109.86
2023-05-15T07:52:44.750Z,109.99
2023-05-15T07:53:44.777Z,114.14
2023-05-15T07:54:44.766Z,114.12
2023-05-15T07:55:44.748Z,117.34
2023-05-15T07:56:44.748Z,121.30
2023-05-15T07:57:44.795Z,121.06
2023-05-15T07:58:44.749Z,122.13
2023-05-15T07:59:44.714Z,123.12
2023-05-15T08:00:44.713Z,125.66
2023-05-15T08:01:44.668Z,126.14
2023-05-15T08:02:44.749Z,126.80
2023-05-15T08:03:44.766Z,125.81
2023-05-15T08:04:44.768Z,127.79
2023-05-15T08:05:44.646Z,131.82
2023-05-15T08:06:44.695Z,132.76
2023-05-15T08:07:44.662Z,131.03
2023-05-15T08:08:44.623Z,132.82
2023-05-15T08:09:44.629Z,135.78
2023-05-15T08:10:44.598Z,136.22
2023-05-15T08:11:44.621Z,136.10
2023-05-15T08:12:44.608Z,133.23
2023-05-15T08:13:44.659Z,136.92
2023-05-15T08:14:44.716Z,140.56
2023-05-15T08:15:44.622Z,140.63
2023-05-15T08:16:44.584Z,140.45
2023-05-15T08:17:44.973Z,141.59
2023-05-15T08:18:44.601Z,145.10
2023-05-15T08:19:44.565Z,147.84
2023-05-15T08:20:44.558Z,148.02
2023-05-15T08:21:44.576Z,147.09
2023-05-15T08:22:44.549Z,147.36
2023-05-15T08:23:44.525Z,149.76
2023-05-15T08:24:44.532Z,149.11
2023-05-15T08:25:44.514Z,150.62
2023-05-15T08:26:44.519Z,153.36
2023-05-15T08:27:44.932Z,153.20
2023-05-15T08:28:44.515Z,154.72
2023-05-15T08:29:44.496Z,153.25
2023-05-15T08:30:44.472Z,153.34
2023-05-15T08:31:44.503Z,154.98
2023-05-15T08:32:44.494Z,160.41
2023-05-15T08:33:44.503Z,155.62
2023-05-15T08:34:44.504Z,157.46
2023-05-15T08:35:44.451Z,157.39
2023-05-15T08:36:44.447Z,160.80
2023-05-15T08:37:44.431Z,162.35
2023-05-15T08:38:44.444Z,163.19
2023-05-15T08:39:44.419Z,164.85
2023-05-15T08:40:44.446Z,161.88
2023-05-15T08:41:44.503Z,163.47
2023-05-15T08:42:44.422Z,166.03
2023-05-15T08:43:44.392Z,164.28
2023-05-15T08:44:44.451Z,162.69
2023-05-15T08:45:44.475Z,167.53
2023-05-15T08:46:44.509Z,175.54
2023-05-15T08:47:44.539Z,174.10
2023-05-15T08:48:44.574Z,191.21
2023-05-15T08:49:44.602Z,188.75
2023-05-15T08:50:45.441Z,184.28
2023-05-15T08:51:44.733Z,184.16
2023-05-15T08:52:44.836Z,184.72
2023-05-15T08:53:44.881Z,179.80
2023-05-15T08:54:46.751Z,179.54
2023-05-15T08:55:44.924Z,183.48
2023-05-15T08:56:44.930Z,188.05
2023-05-15T08:57:44.922Z,185.70
2023-05-15T08:58:44.910Z,185.60
2023-05-15T08:59:44.898Z,187.82
2023-05-15T09:00:44.883Z,187.72
2023-05-15T09:01:44.878Z,184.16
2023-05-15T09:02:45.053Z,165.35
2023-05-15T09:03:44.908Z,161.70
2023-05-15T09:04:44.883Z,158.09
2023-05-15T09:05:44.862Z,152.42
2023-05-15T09:06:44.883Z,145.88
2023-05-15T09:07:45.083Z,144.76
2023-05-15T09:08:44.834Z,141.59
2023-05-15T09:09:44.856Z,139.05
2023-05-15T09:10:44.827Z,131.83
2023-05-15T09:11:44.818Z,132.47
2023-05-15T09:12:44.809Z,128.12
2023-05-15T09:13:44.804Z,119.33
2023-05-15T09:14:44.807Z,118.20
2023-05-15T09:15:44.784Z,121.34
2023-05-15T09:16:44.878Z,115.95
2023-05-15T09:17:44.856Z,111.91
2023-05-15T09:18:44.779Z,99.72
2023-05-15T09:19:44.754Z,89.70
2023-05-15T09:20:44.768Z,93.96
2023-05-15T09:21:44.720Z,88.74
2023-05-15T09:22:44.751Z,87.07
2023-05-15T09:23:44.719Z,89.87
2023-05-15T09:24:44.728Z,77.25
2023-05-15T09:25:44.811Z,71.61
2023-05-15T09:26:44.711Z,72.74
2023-05-15T09:27:44.704Z,74.04
2023-05-15T09:28:44.673Z,85.30
2023-05-15T09:29:44.692Z,83.60
2023-05-15T09:30:44.655Z,92.34
2023-05-15T09:31:44.691Z,93.03
2023-05-15T09:32:44.713Z,88.06
2023-05-15T09:33:44.662Z,94.04
2023-05-15T09:34:44.686Z,100.10
2023-05-15T09:35:44.631Z,100.23
2023-05-15T09:36:44.652Z,96.83
2023-05-15T09:37:44.613Z,96.95
2023-05-15T09:38:44.625Z,100.16
2023-05-15T09:39:44.617Z,100.58
2023-05-15T09:40:44.624Z,91.61
2023-05-15T09:41:44.598Z,99.48
2023-05-15T09:42:44.956Z,96.81
2023-05-15T09:43:44.574Z,104.64
2023-05-15T09:44:44.595Z,99.24
2023-05-15T09:45:44.570Z,84.97
2023-05-15T09:46:44.660Z,90.06
2023-05-15T09:47:44.678Z,97.95
2023-05-15T09:48:44.598Z,102.64
2023-05-15T09:49:44.633Z,97.81
2023-05-15T09:50:44.683Z,91.35
2023-05-15T09:51:44.687Z,88.49
2023-05-15T09:52:44.984Z,87.35
2023-05-15T09:53:44.722Z,101.34
2023-05-15T09:54:44.719Z,107.25
2023-05-15T09:55:44.762Z,113.30
2023-05-15T09:56:44.768Z,114.69
2023-05-15T09:57:44.975Z,114.74
2023-05-15T09:58:44.760Z,117.02
2023-05-15T09:59:44.800Z,115.65
2023-05-15T10:00:48.348Z,114.93
2023-05-15T10:01:44.922Z,115.20
2023-05-15T10:02:44.762Z,115.35
2023-05-15T10:03:44.739Z,117.05
2023-05-15T10:04:44.734Z,117.43
2023-05-15T10:05:44.902Z,119.64
2023-05-15T10:06:44.737Z,120.61
2023-05-15T10:07:44.986Z,116.93
2023-05-15T10:08:44.729Z,115.22
2023-05-15T10:09:44.715Z,114.10
2023-05-15T10:10:44.719Z,120.10
2023-05-15T10:11:44.718Z,123.62
2023-05-15T10:12:45.253Z,122.18
2023-05-15T10:13:44.712Z,118.39
2023-05-15T10:14:44.664Z,120.49
2023-05-15T10:15:44.765Z,119.76
2023-05-15T10:16:44.757Z,109.73
2023-05-15T10:17:44.719Z,109.97
2023-05-15T10:18:45.009Z,104.04
2023-05-15T10:19:57.084Z,107.38
2023-05-15T10:20:45.646Z,107.75
2023-05-15T10:21:44.641Z,103.10
2023-05-15T10:22:44.619Z,89.35
2023-05-15T10:23:44.603Z,103.73
2023-05-15T10:24:44.611Z,111.78
2023-05-15T10:25:44.609Z,97.89
2023-05-15T10:26:44.570Z,101.55
2023-05-15T10:27:44.577Z,97.21
2023-05-15T10:28:45.013Z,97.15
2023-05-15T10:29:44.590Z,103.17
2023-05-15T10:30:44.569Z,110.13
2023-05-15T10:31:44.682Z,115.43
2023-05-15T10:32:44.597Z,107.99
2023-05-15T10:33:44.552Z,108.19
2023-05-15T10:34:44.523Z,101.56
2023-05-15T10:35:44.594Z,100.86
2023-05-15T10:36:44.647Z,103.62
2023-05-15T10:37:44.657Z,91.30
2023-05-15T10:38:44.999Z,89.72
2023-05-15T10:39:44.675Z,87.87
2023-05-15T10:40:44.706Z,83.05
2023-05-15T10:41:44.671Z,80.12
2023-05-15T10:42:44.727Z,84.49
2023-05-15T10:43:44.690Z,93.00
2023-05-15T10:44:44.721Z,102.47
2023-05-15T10:45:44.677Z,107.18
2023-05-15T10:46:44.711Z,106.00
2023-05-15T10:47:44.730Z,109.59
2023-05-15T10:48:44.721Z,110.07
2023-05-15T10:49:44.709Z,108.54
2023-05-15T10:50:44.689Z,111.72
2023-05-15T10:51:45.503Z,107.19
2023-05-15T10:52:44.680Z,106.50
2023-05-15T10:53:45.002Z,105.72
2023-05-15T10:54:44.685Z,104.58
2023-05-15T10:55:44.681Z,105.96
2023-05-15T10:56:44.678Z,104.53
2023-05-15T10:57:44.670Z,101.81
2023-05-15T10:58:44.996Z,102.70
2023-05-15T10:59:44.679Z,102.61
2023-05-15T11:00:44.724Z,100.77
2023-05-15T11:01:44.787Z,101.28
2023-05-15T11:02:44.713Z,98.56
2023-05-15T11:03:49.144Z,96.45
2023-05-15T11:04:45.765Z,96.69
2023-05-15T11:05:44.681Z,96.78
2023-05-15T11:06:44.714Z,96.74
2023-05-15T11:07:44.670Z,94.24
2023-05-15T11:08:45.083Z,96.77
2023-05-15T11:09:44.641Z,96.53
2023-05-15T11:10:44.689Z,93.86
2023-05-15T11:11:44.635Z,95.36
2023-05-15T11:12:44.631Z,93.07
2023-05-15T11:13:44.991Z,92.06
2023-05-15T11:14:44.597Z,93.46
2023-05-15T11:15:44.612Z,90.92
2023-05-15T11:16:45.593Z,91.63
2023-05-15T11:17:44.678Z,92.50
2023-05-15T11:18:45.047Z,91.61
2023-05-15T11:19:44.712Z,89.72
2023-05-15T11:20:44.692Z,91.71
2023-05-15T11:21:44.746Z,91.11
2023-05-15T11:22:44.764Z,88.46
2023-05-15T11:23:45.013Z,89.36
2023-05-15T11:24:44.804Z,89.39
2023-05-15T11:25:44.832Z,87.17
2023-05-15T11:26:44.860Z,88.49
2023-05-15T11:27:44.893Z,86.98
2023-05-15T11:28:45.010Z,86.75
2023-05-15T11:29:44.933Z,86.52
2023-05-15T11:30:45.072Z,86.34
2023-05-15T11:31:45.012Z,86.53
2023-05-15T11:32:45.127Z,86.36
2023-05-15T11:33:45.090Z,85.06
2023-05-15T11:34:46.011Z,86.71
2023-05-15T11:35:45.159Z,84.53
2023-05-15T11:36:45.216Z,84.58
2023-05-15T11:37:45.230Z,84.67
2023-05-15T11:38:45.542Z,82.36
2023-05-15T11:39:45.300Z,84.73
2023-05-15T11:40:45.353Z,78.92
2023-05-15T11:41:45.342Z,85.32
2023-05-15T11:42:45.411Z,81.57
2023-05-15T11:43:45.520Z,80.08
2023-05-15T11:44:45.485Z,77.36
2023-05-15T11:45:45.528Z,75.59
2023-05-15T11:46:45.583Z,77.10
2023-05-15T11:47:45.609Z,75.18
2023-05-15T11:48:46.019Z,75.86
2023-05-15T11:49:45.696Z,75.63
2023-05-15T11:50:45.722Z,74.53
2023-05-15T11:51:45.772Z,69.49
2023-05-15T11:52:45.886Z,70.46
2023-05-15T11:53:45.917Z,70.85
2023-05-15T11:54:45.938Z,70.36
2023-05-15T11:55:45.986Z,68.31
2023-05-15T11:56:46.105Z,68.23
2023-05-15T11:57:46.092Z,67.49
2023-05-15T11:58:46.514Z,66.32
2023-05-15T11:59:46.210Z,64.55
2023-05-15T12:00:46.304Z,58.29
2023-05-15T12:01:46.333Z,64.25
2023-05-15T12:02:46.470Z,63.47
2023-05-15T12:03:46.614Z,58.06
2023-05-15T12:04:46.557Z,59.43
2023-05-15T12:05:57.550Z,58.64
2023-05-15T12:06:47.638Z,58.84
2023-05-15T12:07:46.586Z,58.79
2023-05-15T12:08:47.048Z,59.97
2023-05-15T12:09:46.586Z,59.97
2023-05-15T12:10:46.569Z,58.78
2023-05-15T12:11:46.532Z,55.86
2023-05-15T12:12:46.553Z,60.52
2023-05-15T12:13:46.531Z,57.48
2023-05-15T12:14:46.598Z,60.05
2023-05-15T12:15:46.679Z,58.11
2023-05-15T12:16:46.756Z,55.64
2023-05-15T12:17:46.824Z,54.96
2023-05-15T12:18:46.871Z,55.91
2023-05-15T12:19:46.901Z,54.76
2023-05-15T12:20:47.000Z,55.34
2023-05-15T12:21:47.079Z,55.62
2023-05-15T12:22:47.077Z,55.87
2023-05-15T12:23:59.518Z,50.59
2023-05-15T12:24:48.268Z,50.98
2023-05-15T12:25:47.352Z,51.57
2023-05-15T12:26:47.362Z,52.78
2023-05-15T12:27:47.562Z,53.32
2023-05-15T12:28:47.546Z,57.35
2023-05-15T12:29:47.595Z,54.47
2023-05-15T12:30:47.681Z,55.54
2023-05-15T12:31:47.741Z,53.89
2023-05-15T12:32:47.882Z,55.56
2023-05-15T12:33:47.880Z,56.75
2023-05-15T12:34:47.912Z,54.71
2023-05-15T12:35:48.014Z,55.05
2023-05-15T12:36:48.048Z,54.78
2023-05-15T12:37:48.115Z,53.61
2023-05-15T12:38:48.181Z,53.38
2023-05-15T12:39:48.226Z,54.44
2023-05-15T12:40:48.275Z,55.16
2023-05-15T12:41:49.730Z,55.72
2023-05-15T12:42:48.390Z,52.98
2023-05-15T12:43:48.461Z,53.91
2023-05-15T12:44:48.591Z,51.81
2023-05-15T12:45:48.592Z,52.67
2023-05-15T12:46:48.671Z,56.38
2023-05-15T12:47:48.790Z,53.21
2023-05-15T12:48:48.811Z,50.18